Aérodrome :
LOGIN :

S'inscrire | Disclaimer

   EN    FR    IT 

 










Légende :    VFR   VFR Marginal   IFR   IFR Intensif   IFR Très Intensif
Visi : 
Plafond : 
>= 8 km
>= 3000ft
5 à 8 km
1000 à 3000 ft
1500m à 5 km
500 à 1000 ft
800 à 1500m
200 à 500 ft
< 800m
< 200 ft
Symboles :   Orages  Brouillard  Fortes neiges  Fortes précipitations  Vent > 20 kt
SIGMETs :   Divers  Orages  Givrage  Turbulence  Onde Orograph.  Cendres Volcan.







- Altitude de l'aérodrome : 102 ft
- Code IATA : KEL


EDHK - Holtenau

DERNIER METAR :
  • 230720Z 16008KT 120V190 6000 OVC009 M05/M07 Q1003

METARs EXPIRÉS :
  • 230650Z 14009KT 120V180 5000 OVC008 M04/M06 Q1003
  • 230620Z 13009KT 6000 OVC008 M05/M06 Q1002
  • 230550Z 14009KT 6000 BKN008 M05/M06 Q1002
  • 230520Z 14007KT 120V180 6000 FEW008 M05/M06 Q1002
  • 230450Z 14007KT 110V180 6000 FEW008 M05/M06 Q1002
  • 230420Z 13007KT 100V180 6000 FEW008 M04/M06 Q1002

TAF TAF EDHK
Valide du 23 à 07h jusqu'au 23 à 15h UTC


230600Z 2307/2315 12008KT 7000 SCT012
TEMPO 2307/2310 4000 BR BKN008
TEMPO 2310/2315 BKN012
Pas de NOTAMs connus pour ce terrain.



MET'MAP, la Météo Aéronautique d'un coup d'oeil ! - Copyright ORBIFLY Décembre 2007 - Disclaimer

ORBIFLY MET'MAP TEAM :

Programmation & Développement : Alexandra Zaïnal
Conception & Développement : Baudouin d'Aumeries
Co-Programmation & Développement : Marc-Olivier Méhu
Soutien technique & logistique : Manuel Goepfert

Contact : metmap@orbifly.com




SOURCES & CREDITS :

   NOAA